Westlock, Canada
Current Conditions -  °F | °C
As of 3:00 AM on Monday 26 Jan 2015 (Local Time) from CZVL Reporting Station
Overcast Overcast  
Wind Chill: 38°   Ceiling: 9000
Heat Index: 41°   Visibility: 9mi
Dew Point: 30°   Wind: 5mph
Humidity: 65%   Direction: 320°NW
Pressure: 29.83"   Gusts: NA
Location:  54.15°N, 113.87°W
Report Text: CZVL 261000Z AUTO 32004KT 290V020 9SM OVC090 05/M01 A2983 RMK SLP118
Loading
Personal Weather Stations






























Interactive Weather Map New forecast layout! Learn more

10-Day Weather Forecast

Advertisements
Track Severe Weather on mobile